createdAt,value
2022-10-22T00:00:19.860Z,100393.56
2022-10-22T00:02:43.181Z,100394.84
2022-10-22T00:05:05.998Z,100395.16
2022-10-22T00:07:28.448Z,100392.41
2022-10-22T00:09:50.889Z,100395.69
2022-10-22T00:12:14.977Z,100398.25
2022-10-22T00:14:37.652Z,100395.34
2022-10-22T00:17:01.166Z,100387.88
2022-10-22T00:19:23.525Z,100395.03
2022-10-22T00:21:46.017Z,100388.84
2022-10-22T00:24:08.533Z,100392.09
2022-10-22T00:26:30.883Z,100394.03
2022-10-22T00:28:53.989Z,100391.28
2022-10-22T00:31:16.353Z,100388.66
2022-10-22T00:33:38.725Z,100395.19
2022-10-22T00:36:01.087Z,100390.47
2022-10-22T00:38:23.459Z,100393.72
2022-10-22T00:40:45.943Z,100391.59
2022-10-22T00:43:15.398Z,100389.81
2022-10-22T00:45:37.826Z,100382.81
2022-10-22T00:48:28.434Z,100386.06
2022-10-22T00:51:08.975Z,100380.53
2022-10-22T00:53:40.710Z,100374.69
2022-10-22T00:56:03.100Z,100367.53
2022-10-22T00:58:28.159Z,100368.81
2022-10-22T01:00:50.657Z,100373.56
2022-10-22T01:03:13.038Z,100373.56
2022-10-22T01:06:03.981Z,100371.75
2022-10-22T01:08:51.709Z,100376.16
2022-10-22T01:11:20.176Z,100362.66
2022-10-22T01:14:04.071Z,100351.28
2022-10-22T01:16:47.966Z,100357.31
2022-10-22T01:19:44.676Z,100357.66
2022-10-22T01:22:30.369Z,100356.50
2022-10-22T01:25:00.717Z,100352.59
2022-10-22T01:28:07.148Z,100346.25
2022-10-22T01:30:29.505Z,100348.03
2022-10-22T01:32:58.606Z,100344.97
2022-10-22T01:35:41.915Z,100356.19
2022-10-22T01:38:07.012Z,100351.47
2022-10-22T01:40:29.541Z,100352.25
2022-10-22T01:43:06.529Z,100356.19
2022-10-22T01:45:52.747Z,100350.66
2022-10-22T01:48:41.864Z,100343.66
2022-10-22T01:51:47.564Z,100343.00
2022-10-22T01:54:22.251Z,100338.13
2022-10-22T01:56:59.894Z,100335.03
2022-10-22T01:59:40.651Z,100327.91
2022-10-22T02:02:29.054Z,100324.47
2022-10-22T02:05:03.830Z,100331.94
2022-10-22T02:07:31.008Z,100337.47
2022-10-22T02:09:53.415Z,100338.59
2022-10-22T02:12:15.764Z,100338.28
2022-10-22T02:14:39.751Z,100330.00
2022-10-22T02:17:02.159Z,100336.81
2022-10-22T02:19:36.089Z,100335.19
2022-10-22T02:21:58.503Z,100336.00
2022-10-22T02:24:20.838Z,100330.16
2022-10-22T02:27:01.743Z,100332.09
2022-10-22T02:29:32.389Z,100331.75
2022-10-22T02:31:55.235Z,100330.63
2022-10-22T02:34:21.766Z,100332.41
2022-10-22T02:36:46.783Z,100316.16
2022-10-22T02:39:12.121Z,100311.44
2022-10-22T02:41:34.828Z,100317.63
2022-10-22T02:43:57.354Z,100318.75
2022-10-22T02:46:19.778Z,100324.28
2022-10-22T02:48:42.108Z,100307.56
2022-10-22T02:51:04.468Z,100309.66
2022-10-22T02:53:26.826Z,100314.41
2022-10-22T02:55:49.233Z,100320.38
2022-10-22T02:58:13.977Z,100323.63
2022-10-22T03:00:36.460Z,100325.25
2022-10-22T03:02:58.836Z,100332.06
2022-10-22T03:05:21.470Z,100336.13
2022-10-22T03:07:43.965Z,100340.03
2022-10-22T03:10:07.145Z,100339.53
2022-10-22T03:12:29.630Z,100346.69
2022-10-22T03:14:51.991Z,100342.31
2022-10-22T03:17:14.321Z,100349.78
2022-10-22T03:19:36.787Z,100358.06
2022-10-22T03:22:18.033Z,100361.66
2022-10-22T03:24:45.460Z,100358.88
2022-10-22T03:27:07.932Z,100361.34
2022-10-22T03:29:31.214Z,100352.22
2022-10-22T03:31:54.343Z,100348.19
2022-10-22T03:34:16.675Z,100347.84
2022-10-22T03:36:39.726Z,100355.47
2022-10-22T03:39:02.082Z,100360.34
2022-10-22T03:41:24.445Z,100357.41
2022-10-22T03:43:50.183Z,100354.66
2022-10-22T03:46:12.868Z,100347.31
2022-10-22T03:48:35.304Z,100352.19
2022-10-22T03:50:57.745Z,100344.22
2022-10-22T03:53:20.098Z,100352.97
2022-10-22T03:55:42.639Z,100351.53
2022-10-22T03:58:05.817Z,100357.53
2022-10-22T04:00:28.232Z,100358.66
2022-10-22T04:02:50.663Z,100363.53
2022-10-22T04:07:36.234Z,100369.72
2022-10-22T04:09:58.645Z,100363.38
2022-10-22T04:12:21.068Z,100357.53
2022-10-22T04:14:43.444Z,100352.47
2022-10-22T04:17:05.911Z,100354.09
2022-10-22T04:19:28.285Z,100355.91
2022-10-22T04:21:50.792Z,100358.78
2022-10-22T04:24:13.175Z,100345.47
2022-10-22T04:26:35.560Z,100342.84
2022-10-22T04:28:57.936Z,100343.16
2022-10-22T04:31:22.412Z,100334.69
2022-10-22T04:33:44.921Z,100329.50
2022-10-22T04:36:15.069Z,100328.16
2022-10-22T04:38:38.386Z,100331.75
2022-10-22T04:41:10.665Z,100328.00
2022-10-22T04:43:33.061Z,100327.53
2022-10-22T04:48:17.784Z,100322.47
2022-10-22T04:50:40.163Z,100325.91
2022-10-22T04:53:02.557Z,100328.81
2022-10-22T04:55:24.997Z,100323.44
2022-10-22T04:57:47.384Z,100314.00
2022-10-22T05:00:10.637Z,100319.66
2022-10-22T05:02:32.996Z,100323.59
2022-10-22T05:04:55.357Z,100327.63
2022-10-22T05:07:17.772Z,100330.72
2022-10-22T05:09:40.203Z,100331.53
2022-10-22T05:12:02.691Z,100343.09
2022-10-22T05:14:25.329Z,100349.09
2022-10-22T05:16:48.801Z,100356.25
2022-10-22T05:19:17.473Z,100357.88
2022-10-22T05:21:39.861Z,100360.97
2022-10-22T05:24:02.326Z,100361.50
2022-10-22T05:26:25.331Z,100369.84
2022-10-22T05:28:48.878Z,100371.44
2022-10-22T05:31:12.341Z,100366.88
2022-10-22T05:33:35.168Z,100372.56
2022-10-22T05:35:57.653Z,100373.19
2022-10-22T05:38:20.247Z,100392.06
2022-10-22T05:40:42.728Z,100394.50
2022-10-22T05:43:05.112Z,100380.31
2022-10-22T05:45:27.866Z,100385.53
2022-10-22T05:47:50.267Z,100381.59
2022-10-22T05:50:12.764Z,100383.38
2022-10-22T05:52:35.110Z,100383.19
2022-10-22T05:54:57.559Z,100384.16
2022-10-22T05:57:20.000Z,100385.13
2022-10-22T05:59:42.351Z,100387.88
2022-10-22T06:02:04.819Z,100377.75
2022-10-22T06:04:27.175Z,100381.00
2022-10-22T06:06:53.556Z,100367.19
2022-10-22T06:11:58.169Z,100377.22
2022-10-22T06:14:20.876Z,100377.88
2022-10-22T06:16:43.463Z,100375.56
2022-10-22T06:19:06.285Z,100374.06
2022-10-22T06:21:28.998Z,100383.66
2022-10-22T06:23:51.478Z,100384.97
2022-10-22T06:26:13.930Z,100385.44
2022-10-22T06:28:36.546Z,100397.31
2022-10-22T06:30:59.938Z,100398.94
2022-10-22T06:33:22.284Z,100406.09
2022-10-22T06:35:45.393Z,100416.84
2022-10-22T06:38:07.858Z,100423.66
2022-10-22T06:40:30.234Z,100418.13
2022-10-22T06:42:52.683Z,100428.53
2022-10-22T06:45:15.225Z,100425.75
2022-10-22T06:47:37.852Z,100418.94
2022-10-22T06:50:00.296Z,100417.59
2022-10-22T06:52:22.698Z,100423.28
2022-10-22T06:54:45.127Z,100434.38
2022-10-22T06:57:07.571Z,100429.28
2022-10-22T06:59:30.021Z,100443.44
2022-10-22T07:01:52.451Z,100437.13
2022-10-22T07:04:14.993Z,100446.09
2022-10-22T07:06:37.483Z,100453.25
2022-10-22T07:09:00.732Z,100458.31
2022-10-22T07:11:28.589Z,100458.94
2022-10-22T07:13:51.309Z,100465.28
2022-10-22T07:16:14.093Z,100457.44
2022-10-22T07:18:36.930Z,100473.28
2022-10-22T07:20:59.757Z,100478.94
2022-10-22T07:23:22.168Z,100475.38
2022-10-22T07:25:44.601Z,100486.91
2022-10-22T07:28:07.044Z,100496.66
2022-10-22T07:30:29.450Z,100489.84
2022-10-22T07:32:51.806Z,100483.13
2022-10-22T07:35:14.286Z,100474.50
2022-10-22T07:37:36.734Z,100469.94
2022-10-22T07:40:02.896Z,100470.09
2022-10-22T07:42:26.502Z,100479.22
2022-10-22T07:44:48.975Z,100468.75
2022-10-22T07:47:11.396Z,100475.59
2022-10-22T07:49:33.760Z,100477.34
2022-10-22T07:51:57.112Z,100483.69
2022-10-22T07:54:19.423Z,100475.72
2022-10-22T07:56:41.771Z,100478.16
2022-10-22T07:59:04.130Z,100483.50
2022-10-22T08:01:26.603Z,100484.91
2022-10-22T08:03:49.149Z,100487.81
2022-10-22T08:06:13.650Z,100483.59
2022-10-22T08:08:36.098Z,100473.44
2022-10-22T08:10:59.914Z,100479.47
2022-10-22T08:13:23.467Z,100471.16
2022-10-22T08:15:46.921Z,100463.44
2022-10-22T08:18:09.341Z,100462.31
2022-10-22T08:20:31.853Z,100469.59
2022-10-22T08:22:54.275Z,100469.03
2022-10-22T08:25:18.339Z,100479.00
2022-10-22T08:27:40.863Z,100487.78
2022-10-22T08:30:04.853Z,100476.34
2022-10-22T08:34:54.577Z,100475.47
2022-10-22T08:37:17.838Z,100482.28
2022-10-22T08:39:41.355Z,100481.94
2022-10-22T08:42:21.642Z,100480.13
2022-10-22T08:45:00.089Z,100483.72
2022-10-22T08:47:59.830Z,100481.56
2022-10-22T08:50:34.669Z,100474.53
2022-10-22T08:52:58.046Z,100467.59
2022-10-22T08:55:20.420Z,100472.34
2022-10-22T08:58:03.517Z,100465.09
2022-10-22T09:00:39.108Z,100454.91
2022-10-22T09:03:16.369Z,100454.91
2022-10-22T09:06:05.807Z,100444.06
2022-10-22T09:08:28.185Z,100450.22
2022-10-22T09:11:02.935Z,100466.84
2022-10-22T09:13:25.333Z,100452.66
2022-10-22T09:16:24.544Z,100458.78
2022-10-22T09:19:02.653Z,100463.53
2022-10-22T09:21:37.491Z,100458.91
2022-10-22T09:24:46.692Z,100461.94
2022-10-22T09:27:15.098Z,100458.59
2022-10-22T09:29:37.720Z,100471.31
2022-10-22T09:32:00.240Z,100476.84
2022-10-22T09:34:22.815Z,100475.59
2022-10-22T09:36:45.205Z,100475.59
2022-10-22T09:39:26.262Z,100485.31
2022-10-22T09:41:48.608Z,100489.22
2022-10-22T09:44:13.124Z,100486.44
2022-10-22T09:46:39.860Z,100501.63
2022-10-22T09:49:07.063Z,100497.22
2022-10-22T09:51:47.480Z,100504.03
2022-10-22T09:54:32.604Z,100498.03
2022-10-22T09:57:22.197Z,100509.47
2022-10-22T09:59:47.435Z,100515.38
2022-10-22T10:02:19.917Z,100525.81
2022-10-22T10:04:54.957Z,100527.75
2022-10-22T10:07:27.557Z,100536.53
2022-10-22T10:09:50.130Z,100538.31
2022-10-22T10:12:55.346Z,100534.25
2022-10-22T10:15:25.305Z,100525.81
2022-10-22T10:18:30.297Z,100532.16
2022-10-22T10:21:04.605Z,100525.13
2022-10-22T10:24:23.333Z,100511.56
2022-10-22T10:26:51.375Z,100526.50
2022-10-22T10:30:18.600Z,100509.16
2022-10-22T10:33:10.980Z,100507.38
2022-10-22T10:35:55.380Z,100516.19
2022-10-22T10:38:55.696Z,100503.47
2022-10-22T10:41:46.441Z,100519.88
2022-10-22T10:48:53.628Z,100523.13
2022-10-22T10:51:58.533Z,100528.69
2022-10-22T10:54:51.685Z,100526.91
2022-10-22T10:57:32.164Z,100517.56
2022-10-22T11:00:07.799Z,100534.47
2022-10-22T11:03:03.358Z,100534.47
2022-10-22T11:06:08.370Z,100526.13
2022-10-22T11:08:32.754Z,100513.19
2022-10-22T11:11:08.922Z,100514.00
2022-10-22T11:13:39.028Z,100516.19
2022-10-22T11:16:25.378Z,100511.78
2022-10-22T11:19:22.647Z,100511.56
2022-10-22T11:22:26.497Z,100511.56
2022-10-22T11:25:15.389Z,100515.63
2022-10-22T11:27:54.507Z,100519.75
2022-10-22T11:30:28.490Z,100517.59
2022-10-22T11:32:54.656Z,100516.56
2022-10-22T11:35:26.067Z,100517.72
2022-10-22T11:37:48.598Z,100507.63
2022-10-22T11:40:32.556Z,100511.69
2022-10-22T11:42:58.876Z,100513.56
2022-10-22T11:45:24.200Z,100518.63
2022-10-22T11:48:07.896Z,100518.28
2022-10-22T11:50:57.394Z,100515.50
2022-10-22T11:53:26.036Z,100502.53
2022-10-22T11:56:27.924Z,100509.28
2022-10-22T11:58:53.753Z,100507.63
2022-10-22T12:01:22.640Z,100509.41
2022-10-22T12:04:19.096Z,100499.44
2022-10-22T12:06:58.607Z,100507.41
2022-10-22T12:09:21.205Z,100508.69
2022-10-22T12:11:47.937Z,100509.63
2022-10-22T12:14:52.309Z,100504.88
2022-10-22T12:17:15.482Z,100505.69
2022-10-22T12:19:50.178Z,100501.88
2022-10-22T12:22:26.462Z,100501.06
2022-10-22T12:24:53.481Z,100495.66
2022-10-22T12:27:30.171Z,100499.22
2022-10-22T12:30:05.213Z,100482.91
2022-10-22T12:33:07.658Z,100491.69
2022-10-22T12:35:36.051Z,100486.63
2022-10-22T12:38:01.664Z,100485.44
2022-10-22T12:40:34.944Z,100485.00
2022-10-22T12:43:00.292Z,100485.44
2022-10-22T12:45:23.280Z,100484.53
2022-10-22T12:48:06.566Z,100485.81
2022-10-22T12:50:40.502Z,100485.00
2022-10-22T12:53:02.898Z,100493.44
2022-10-22T12:56:13.712Z,100491.81
2022-10-22T13:02:28.499Z,100477.59
2022-10-22T13:05:12.599Z,100493.78
2022-10-22T13:07:39.666Z,100494.13
2022-10-22T13:10:15.483Z,100485.44
2022-10-22T13:12:37.974Z,100492.63
2022-10-22T13:15:28.295Z,100483.47
2022-10-22T13:17:50.967Z,100488.91
2022-10-22T13:20:22.932Z,100485.22
2022-10-22T13:23:20.105Z,100487.31
2022-10-22T13:25:42.468Z,100484.53
2022-10-22T13:28:19.919Z,100484.53
2022-10-22T13:30:59.062Z,100483.34
2022-10-22T13:33:33.643Z,100475.72
2022-10-22T13:35:56.512Z,100484.06
2022-10-22T13:38:20.516Z,100478.03
2022-10-22T13:40:49.689Z,100475.72
2022-10-22T13:43:12.440Z,100478.97
2022-10-22T13:45:34.874Z,100480.56
2022-10-22T13:47:57.235Z,100477.34
2022-10-22T13:50:20.596Z,100470.28
2022-10-22T13:52:54.055Z,100469.13
2022-10-22T13:55:36.684Z,100466.94
2022-10-22T13:58:09.984Z,100467.19
2022-10-22T14:00:32.610Z,100469.47
2022-10-22T14:02:57.429Z,100468.31
2022-10-22T14:05:22.854Z,100475.84
2022-10-22T14:08:17.493Z,100482.34
2022-10-22T14:15:02.473Z,100490.31
2022-10-22T14:17:24.923Z,100491.81
2022-10-22T14:19:48.070Z,100488.22
2022-10-22T14:22:20.076Z,100497.38
2022-10-22T14:24:42.500Z,100501.09
2022-10-22T14:27:04.896Z,100503.03
2022-10-22T14:29:27.371Z,100499.13
2022-10-22T14:31:49.741Z,100505.81
2022-10-22T14:34:14.071Z,100506.19
2022-10-22T14:36:38.294Z,100519.72
2022-10-22T14:42:21.184Z,100518.19
2022-10-22T14:48:16.249Z,100520.28
2022-10-22T14:50:41.752Z,100521.47
2022-10-22T14:53:16.756Z,100521.09
2022-10-22T14:56:56.982Z,100521.47
2022-10-22T14:59:19.298Z,100522.59
2022-10-22T15:01:42.922Z,100520.16
2022-10-22T15:04:05.544Z,100520.97
2022-10-22T15:06:31.027Z,100522.16
2022-10-22T15:09:06.148Z,100523.75
2022-10-22T15:11:32.860Z,100521.78
2022-10-22T15:13:58.269Z,100526.19
2022-10-22T15:16:20.695Z,100527.81
2022-10-22T15:18:43.092Z,100526.31
2022-10-22T15:21:08.542Z,100525.50
2022-10-22T15:23:31.002Z,100525.97
2022-10-22T15:25:53.514Z,100532.00
2022-10-22T15:28:15.884Z,100524.81
2022-10-22T15:30:38.425Z,100522.50
2022-10-22T15:33:00.932Z,100523.53
2022-10-22T15:35:23.334Z,100530.38
2022-10-22T15:37:45.857Z,100524.34
2022-10-22T15:40:08.908Z,100532.56
2022-10-22T15:42:31.311Z,100534.16
2022-10-22T15:44:58.598Z,100541.81
2022-10-22T15:47:21.085Z,100541.22
2022-10-22T15:49:43.560Z,100542.88
2022-10-22T15:52:06.622Z,100545.28
2022-10-22T15:54:29.797Z,100542.16
2022-10-22T15:56:52.186Z,100553.41
2022-10-22T15:59:15.736Z,100558.97
2022-10-22T16:01:38.612Z,100558.97
2022-10-22T16:04:02.753Z,100575.50
2022-10-22T16:06:25.542Z,100572.16
2022-10-22T16:08:48.007Z,100574.13
2022-10-22T16:11:10.477Z,100576.53
2022-10-22T16:13:32.927Z,100575.75
2022-10-22T16:15:55.303Z,100583.59
2022-10-22T16:18:18.662Z,100583.59
2022-10-22T16:20:41.156Z,100594.13
2022-10-22T16:23:03.535Z,100594.25
2022-10-22T16:25:25.871Z,100588.34
2022-10-22T16:27:51.740Z,100595.19
2022-10-22T16:30:14.198Z,100591.75
2022-10-22T16:32:36.591Z,100600.84
2022-10-22T16:34:59.121Z,100602.84
2022-10-22T16:37:21.488Z,100594.97
2022-10-22T16:39:43.889Z,100595.09
2022-10-22T16:42:06.659Z,100598.19
2022-10-22T16:44:29.923Z,100602.28
2022-10-22T16:46:52.208Z,100607.84
2022-10-22T16:49:14.652Z,100615.00
2022-10-22T16:51:37.021Z,100608.84
2022-10-22T16:53:59.405Z,100614.66
2022-10-22T16:56:21.852Z,100607.84
2022-10-22T16:58:52.954Z,100625.28
2022-10-22T17:01:17.954Z,100618.81
2022-10-22T17:03:40.681Z,100625.66
2022-10-22T17:06:04.226Z,100625.19
2022-10-22T17:08:26.794Z,100628.06
2022-10-22T17:10:49.221Z,100620.78
2022-10-22T17:13:11.578Z,100626.69
2022-10-22T17:15:34.102Z,100622.06
2022-10-22T17:17:56.622Z,100638.28
2022-10-22T17:20:19.299Z,100633.41
2022-10-22T17:22:41.813Z,100630.63
2022-10-22T17:25:16.224Z,100639.66
2022-10-22T17:27:38.766Z,100635.50
2022-10-22T17:30:01.321Z,100641.38
2022-10-22T17:32:23.734Z,100642.91
2022-10-22T17:34:46.091Z,100645.66
2022-10-22T17:37:08.450Z,100651.22
2022-10-22T17:39:30.835Z,100644.28
2022-10-22T17:41:53.300Z,100647.72
2022-10-22T17:44:16.205Z,100655.72
2022-10-22T17:46:38.650Z,100651.34
2022-10-22T17:49:04.128Z,100650.16
2022-10-22T17:51:27.146Z,100660.94
2022-10-22T17:53:52.341Z,100657.00
2022-10-22T17:56:20.813Z,100657.47
2022-10-22T17:58:43.170Z,100655.38
2022-10-22T18:01:05.835Z,100652.72
2022-10-22T18:03:28.343Z,100644.41
2022-10-22T18:05:50.801Z,100661.53
2022-10-22T18:08:13.168Z,100655.97
2022-10-22T18:10:39.453Z,100662.34
2022-10-22T18:13:02.122Z,100660.56
2022-10-22T18:15:26.110Z,100661.06
2022-10-22T18:17:50.326Z,100662.22
2022-10-22T18:20:12.993Z,100663.97
2022-10-22T18:22:36.102Z,100667.91
2022-10-22T18:24:58.554Z,100660.72
2022-10-22T18:27:20.963Z,100666.75
2022-10-22T18:29:43.292Z,100667.22
2022-10-22T18:32:12.101Z,100671.13
2022-10-22T18:34:37.442Z,100667.91
2022-10-22T18:36:59.839Z,100667.22
2022-10-22T18:39:22.242Z,100669.16
2022-10-22T18:41:44.787Z,100668.84
2022-10-22T18:44:07.398Z,100663.75
2022-10-22T18:46:30.527Z,100669.31
2022-10-22T18:48:54.119Z,100666.97
2022-10-22T18:51:16.739Z,100674.03
2022-10-22T18:53:39.038Z,100675.31
2022-10-22T18:56:01.731Z,100676.50
2022-10-22T18:58:24.140Z,100675.69
2022-10-22T19:00:46.594Z,100678.91
2022-10-22T19:03:09.154Z,100680.09
2022-10-22T19:05:31.825Z,100688.06
2022-10-22T19:07:54.220Z,100680.41
2022-10-22T19:10:17.502Z,100686.09
2022-10-22T19:12:40.187Z,100687.13
2022-10-22T19:15:02.825Z,100694.44
2022-10-22T19:17:25.468Z,100688.88
2022-10-22T19:19:47.877Z,100690.50
2022-10-22T19:22:10.239Z,100694.56
2022-10-22T19:24:33.312Z,100683.44
2022-10-22T19:26:55.804Z,100695.38
2022-10-22T19:29:19.814Z,100692.25
2022-10-22T19:31:42.496Z,100698.50
2022-10-22T19:34:05.310Z,100703.34
2022-10-22T19:36:28.949Z,100700.59
2022-10-22T19:38:51.494Z,100705.81
2022-10-22T19:41:15.826Z,100703.03
2022-10-22T19:43:41.523Z,100708.22
2022-10-22T19:46:05.469Z,100715.41
2022-10-22T19:48:28.790Z,100722.63
2022-10-22T19:50:52.843Z,100722.94
2022-10-22T19:53:15.305Z,100729.81
2022-10-22T19:55:44.433Z,100721.47
2022-10-22T19:58:07.062Z,100727.50
2022-10-22T20:00:29.666Z,100730.06
2022-10-22T20:02:52.080Z,100721.25
2022-10-22T20:05:14.532Z,100735.03
2022-10-22T20:07:37.417Z,100739.09
2022-10-22T20:09:59.926Z,100740.72
2022-10-22T20:12:22.302Z,100746.75
2022-10-22T20:14:44.620Z,100738.41
2022-10-22T20:17:07.161Z,100743.16
2022-10-22T20:19:29.941Z,100748.38
2022-10-22T20:21:52.420Z,100750.34
2022-10-22T20:24:15.230Z,100768.63
2022-10-22T20:26:37.844Z,100761.22
2022-10-22T20:29:00.534Z,100769.09
2022-10-22T20:31:25.209Z,100769.09
2022-10-22T20:33:48.743Z,100765.50
2022-10-22T20:36:16.581Z,100764.81
2022-10-22T20:38:39.141Z,100773.53
2022-10-22T20:41:07.295Z,100776.41
2022-10-22T20:43:29.854Z,100771.66
2022-10-22T20:45:52.229Z,100777.22
2022-10-22T20:48:14.599Z,100778.41
2022-10-22T20:50:37.150Z,100775.72
2022-10-22T20:52:59.909Z,100787.66
2022-10-22T20:55:22.346Z,100787.31
2022-10-22T20:57:44.825Z,100786.50
2022-10-22T21:00:08.378Z,100796.47
2022-10-22T21:02:31.234Z,100789.63
2022-10-22T21:04:53.833Z,100801.22
2022-10-22T21:07:16.830Z,100806.78
2022-10-22T21:09:39.292Z,100803.19
2022-10-22T21:12:03.578Z,100802.81
2022-10-22T21:14:26.196Z,100806.91
2022-10-22T21:16:50.105Z,100808.19
2022-10-22T21:19:12.890Z,100824.63
2022-10-22T21:21:35.443Z,100801.56
2022-10-22T21:23:57.794Z,100804.69
2022-10-22T21:26:20.827Z,100805.03
2022-10-22T21:28:43.236Z,100799.94
2022-10-22T21:31:07.847Z,100809.44
2022-10-22T21:33:30.502Z,100814.63
2022-10-22T21:35:54.080Z,100813.16
2022-10-22T21:38:16.613Z,100820.19
2022-10-22T21:40:39.248Z,100821.50
2022-10-22T21:43:01.887Z,100817.22
2022-10-22T21:45:24.454Z,100811.06
2022-10-22T21:47:47.133Z,100819.28
2022-10-22T21:50:09.989Z,100807.66
2022-10-22T21:52:32.896Z,100823.56
2022-10-22T21:54:55.251Z,100824.72
2022-10-22T21:57:17.641Z,100827.81
2022-10-22T21:59:40.071Z,100828.16
2022-10-22T22:02:05.629Z,100830.13
2022-10-22T22:04:28.488Z,100831.50
2022-10-22T22:06:50.882Z,100830.19
2022-10-22T22:09:13.546Z,100829.69
2022-10-22T22:11:36.766Z,100832.56
2022-10-22T22:13:59.543Z,100822.41
2022-10-22T22:16:28.061Z,100828.16
2022-10-22T22:18:51.398Z,100832.97
2022-10-22T22:21:16.791Z,100830.13
2022-10-22T22:23:41.370Z,100826.75
2022-10-22T22:26:04.022Z,100830.00
2022-10-22T22:28:27.307Z,100828.25
2022-10-22T22:30:49.627Z,100829.25
2022-10-22T22:33:12.616Z,100836.59
2022-10-22T22:38:01.531Z,100836.75
2022-10-22T22:40:24.015Z,100838.03
2022-10-22T22:42:46.399Z,100839.53
2022-10-22T22:45:09.153Z,100846.13
2022-10-22T22:47:31.602Z,100857.38
2022-10-22T22:49:53.915Z,100853.63
2022-10-22T22:52:16.358Z,100842.84
2022-10-22T22:54:38.733Z,100856.41
2022-10-22T22:57:01.071Z,100850.03
2022-10-22T22:59:23.435Z,100846.78
2022-10-22T23:01:48.853Z,100850.72
2022-10-22T23:04:16.303Z,100851.19
2022-10-22T23:06:38.970Z,100851.03
2022-10-22T23:09:01.657Z,100856.41
2022-10-22T23:11:24.747Z,100865.06
2022-10-22T23:13:47.292Z,100864.28
2022-10-22T23:16:20.853Z,100863.25
2022-10-22T23:18:43.773Z,100865.06
2022-10-22T23:21:18.542Z,100865.88
2022-10-22T23:23:44.845Z,100864.38
2022-10-22T23:26:07.165Z,100865.22
2022-10-22T23:28:29.546Z,100867.06
2022-10-22T23:30:51.929Z,100867.53
2022-10-22T23:33:15.174Z,100867.53
2022-10-22T23:35:41.068Z,100860.69
2022-10-22T23:38:03.470Z,100866.56
2022-10-22T23:40:25.780Z,100869.69
2022-10-22T23:42:48.277Z,100878.03
2022-10-22T23:45:10.909Z,100869.69
2022-10-22T23:47:33.246Z,100879.97
2022-10-22T23:49:55.659Z,100876.03
2022-10-22T23:52:18.167Z,100872.94
2022-10-22T23:54:40.813Z,100881.88
2022-10-22T23:57:03.225Z,100872.06
2022-10-22T23:59:25.689Z,100870.44
